createdAt,value
2022-11-01T00:00:46.273Z,14.00
2022-11-01T00:01:46.328Z,13.80
2022-11-01T00:02:46.279Z,13.60
2022-11-01T00:03:46.245Z,12.60
2022-11-01T00:04:46.264Z,14.30
2022-11-01T00:05:46.219Z,13.50
2022-11-01T00:06:46.205Z,12.70
2022-11-01T00:07:46.214Z,13.30
2022-11-01T00:08:46.207Z,12.40
2022-11-01T00:09:46.160Z,13.10
2022-11-01T00:10:46.259Z,13.00
2022-11-01T00:11:46.146Z,14.30
2022-11-01T00:12:46.152Z,13.00
2022-11-01T00:13:46.162Z,12.90
2022-11-01T00:14:46.163Z,13.90
2022-11-01T00:15:46.091Z,15.20
2022-11-01T00:16:46.113Z,13.50
2022-11-01T00:17:46.116Z,12.90
2022-11-01T00:18:46.067Z,14.10
2022-11-01T00:19:46.092Z,13.60
2022-11-01T00:20:46.065Z,13.90
2022-11-01T00:21:46.046Z,13.20
2022-11-01T00:22:46.112Z,13.50
2022-11-01T00:23:46.004Z,13.10
2022-11-01T00:24:46.038Z,13.10
2022-11-01T00:25:46.003Z,13.50
2022-11-01T00:26:46.043Z,14.10
2022-11-01T00:27:45.982Z,14.10
2022-11-01T00:28:45.998Z,13.50
2022-11-01T00:29:45.935Z,13.80
2022-11-01T00:30:45.962Z,13.10
2022-11-01T00:31:45.945Z,13.80
2022-11-01T00:32:45.907Z,14.10
2022-11-01T00:33:45.916Z,13.10
2022-11-01T00:34:45.892Z,13.50
2022-11-01T00:35:45.881Z,12.80
2022-11-01T00:36:45.928Z,13.50
2022-11-01T00:37:45.877Z,14.80
2022-11-01T00:38:45.858Z,15.00
2022-11-01T00:39:45.837Z,14.50
2022-11-01T00:40:45.829Z,13.90
2022-11-01T00:41:45.819Z,14.40
2022-11-01T00:42:45.802Z,14.80
2022-11-01T00:43:45.796Z,13.90
2022-11-01T00:44:45.787Z,14.90
2022-11-01T00:45:45.763Z,13.80
2022-11-01T00:46:45.747Z,14.30
2022-11-01T00:47:45.753Z,13.80
2022-11-01T00:48:45.746Z,15.40
2022-11-01T00:49:45.709Z,15.00
2022-11-01T00:50:45.716Z,15.30
2022-11-01T00:51:45.688Z,15.30
2022-11-01T00:52:45.680Z,15.10
2022-11-01T00:53:45.691Z,16.50
2022-11-01T00:54:45.657Z,18.60
2022-11-01T00:55:45.660Z,17.30
2022-11-01T00:56:45.639Z,15.90
2022-11-01T00:57:45.621Z,16.70
2022-11-01T00:58:45.635Z,15.20
2022-11-01T00:59:45.641Z,15.60
2022-11-01T01:00:45.636Z,15.80
2022-11-01T01:01:45.766Z,17.50
2022-11-01T01:02:45.562Z,16.90
2022-11-01T01:03:45.602Z,18.00
2022-11-01T01:04:45.554Z,17.20
2022-11-01T01:05:45.543Z,16.80
2022-11-01T01:06:45.526Z,16.10
2022-11-01T01:07:45.525Z,16.90
2022-11-01T01:08:45.566Z,17.70
2022-11-01T01:09:45.496Z,16.20
2022-11-01T01:10:45.489Z,18.40
2022-11-01T01:11:45.481Z,18.50
2022-11-01T01:12:45.461Z,17.90
2022-11-01T01:13:45.458Z,17.10
2022-11-01T01:14:50.978Z,17.10
2022-11-01T01:15:45.434Z,17.60
2022-11-01T01:16:45.415Z,16.00
2022-11-01T01:17:45.409Z,16.30
2022-11-01T01:18:45.403Z,19.00
2022-11-01T01:19:45.385Z,18.20
2022-11-01T01:20:45.367Z,17.60
2022-11-01T01:21:45.353Z,18.90
2022-11-01T01:22:45.353Z,20.40
2022-11-01T01:23:45.357Z,19.40
2022-11-01T01:24:45.319Z,20.60
2022-11-01T01:25:45.324Z,20.50
2022-11-01T01:26:45.297Z,20.50
2022-11-01T01:27:45.284Z,19.70
2022-11-01T01:28:45.308Z,20.30
2022-11-01T01:29:45.270Z,18.50
2022-11-01T01:30:45.256Z,18.50
2022-11-01T01:31:45.241Z,18.70
2022-11-01T01:32:45.244Z,17.80
2022-11-01T01:33:45.246Z,19.40
2022-11-01T01:34:45.209Z,19.40
2022-11-01T01:35:45.199Z,18.20
2022-11-01T01:36:45.196Z,21.00
2022-11-01T01:37:45.185Z,19.80
2022-11-01T01:38:45.202Z,20.10
2022-11-01T01:39:45.148Z,21.50
2022-11-01T01:40:45.154Z,20.40
2022-11-01T01:41:45.129Z,21.60
2022-11-01T01:42:45.134Z,19.40
2022-11-01T01:43:45.132Z,19.60
2022-11-01T01:44:45.104Z,17.90
2022-11-01T01:45:45.080Z,19.60
2022-11-01T01:46:45.079Z,19.30
2022-11-01T01:47:45.061Z,19.40
2022-11-01T01:48:45.077Z,22.20
2022-11-01T01:49:45.070Z,21.10
2022-11-01T01:50:45.023Z,20.80
2022-11-01T01:51:45.022Z,20.90
2022-11-01T01:52:45.010Z,21.30
2022-11-01T01:53:45.005Z,20.10
2022-11-01T01:54:44.994Z,22.90
2022-11-01T01:55:44.979Z,21.80
2022-11-01T01:56:44.978Z,21.90
2022-11-01T01:57:44.966Z,23.20
2022-11-01T01:58:44.982Z,21.70
2022-11-01T01:59:44.958Z,23.00
2022-11-01T02:00:51.499Z,22.00
2022-11-01T02:01:45.019Z,22.10
2022-11-01T02:02:44.889Z,22.50
2022-11-01T02:03:44.894Z,23.10
2022-11-01T02:04:44.873Z,22.40
2022-11-01T02:05:44.864Z,22.30
2022-11-01T02:06:44.859Z,22.60
2022-11-01T02:07:44.827Z,23.80
2022-11-01T02:08:44.854Z,23.20
2022-11-01T02:09:44.816Z,22.10
2022-11-01T02:10:44.798Z,20.90
2022-11-01T02:11:44.797Z,23.70
2022-11-01T02:12:44.782Z,22.80
2022-11-01T02:13:44.789Z,23.00
2022-11-01T02:14:44.754Z,21.10
2022-11-01T02:15:44.747Z,22.50
2022-11-01T02:16:44.739Z,21.70
2022-11-01T02:17:44.729Z,21.20
2022-11-01T02:18:44.737Z,20.70
2022-11-01T02:19:44.697Z,21.70
2022-11-01T02:20:44.708Z,21.60
2022-11-01T02:21:44.678Z,20.60
2022-11-01T02:23:44.674Z,22.90
2022-11-01T02:24:44.655Z,23.80
2022-11-01T02:25:44.628Z,23.70
2022-11-01T02:26:44.658Z,23.90
2022-11-01T02:27:44.615Z,24.30
2022-11-01T02:28:44.621Z,22.10
2022-11-01T02:29:44.587Z,22.80
2022-11-01T02:30:44.583Z,24.00
2022-11-01T02:31:44.563Z,24.30
2022-11-01T02:32:44.563Z,25.30
2022-11-01T02:33:44.566Z,22.30
2022-11-01T02:34:44.529Z,22.90
2022-11-01T02:35:44.519Z,22.20
2022-11-01T02:36:44.504Z,23.50
2022-11-01T02:37:44.503Z,22.60
2022-11-01T02:38:44.506Z,24.70
2022-11-01T02:39:44.494Z,22.20
2022-11-01T02:40:44.465Z,24.70
2022-11-01T02:41:44.472Z,23.60
2022-11-01T02:42:44.449Z,25.30
2022-11-01T02:43:44.449Z,23.00
2022-11-01T02:44:44.421Z,23.60
2022-11-01T02:45:44.435Z,23.60
2022-11-01T02:46:44.402Z,21.30
2022-11-01T02:47:44.381Z,22.40
2022-11-01T02:48:44.391Z,23.20
2022-11-01T02:49:44.364Z,25.20
2022-11-01T02:50:44.351Z,25.70
2022-11-01T02:51:44.390Z,25.10
2022-11-01T02:52:44.342Z,25.50
2022-11-01T02:53:44.335Z,25.70
2022-11-01T02:54:44.307Z,24.50
2022-11-01T02:56:44.287Z,22.90
2022-11-01T02:57:44.267Z,24.40
2022-11-01T02:58:44.282Z,24.50
2022-11-01T02:59:44.288Z,26.00
2022-11-01T03:00:44.270Z,24.00
2022-11-01T03:01:44.339Z,24.50
2022-11-01T03:02:44.219Z,24.70
2022-11-01T03:03:44.230Z,25.00
2022-11-01T03:04:44.220Z,22.10
2022-11-01T03:05:44.193Z,23.70
2022-11-01T03:06:44.181Z,24.00
2022-11-01T03:07:44.155Z,23.80
2022-11-01T03:08:44.149Z,22.80
2022-11-01T03:09:44.175Z,25.20
2022-11-01T03:10:44.130Z,25.00
2022-11-01T03:11:44.121Z,23.80
2022-11-01T03:12:44.111Z,23.50
2022-11-01T03:13:44.097Z,25.20
2022-11-01T03:14:44.125Z,23.60
2022-11-01T03:15:44.068Z,23.10
2022-11-01T03:16:44.059Z,23.90
2022-11-01T03:17:44.045Z,23.50
2022-11-01T03:18:44.042Z,22.10
2022-11-01T03:19:44.061Z,22.00
2022-11-01T03:20:44.028Z,23.70
2022-11-01T03:21:44.011Z,23.70
2022-11-01T03:22:44.005Z,23.60
2022-11-01T03:23:43.977Z,23.10
2022-11-01T03:24:43.996Z,22.50
2022-11-01T03:25:43.966Z,24.40
2022-11-01T03:26:43.954Z,23.30
2022-11-01T03:27:43.941Z,22.40
2022-11-01T03:28:43.992Z,22.30
2022-11-01T03:29:43.928Z,24.70
2022-11-01T03:30:43.902Z,25.20
2022-11-01T03:31:43.892Z,23.70
2022-11-01T03:32:43.886Z,25.20
2022-11-01T03:33:43.897Z,24.20
2022-11-01T03:34:43.885Z,23.70
2022-11-01T03:35:43.872Z,23.70
2022-11-01T03:36:43.831Z,23.50
2022-11-01T03:37:43.826Z,23.10
2022-11-01T03:38:43.839Z,22.40
2022-11-01T03:39:43.834Z,22.90
2022-11-01T03:40:43.788Z,22.60
2022-11-01T03:41:43.788Z,23.50
2022-11-01T03:42:43.796Z,24.00
2022-11-01T03:43:43.759Z,22.10
2022-11-01T03:44:43.766Z,22.70
2022-11-01T03:45:43.742Z,23.10
2022-11-01T03:46:43.727Z,23.50
2022-11-01T03:47:43.749Z,21.90
2022-11-01T03:48:43.699Z,22.70
2022-11-01T03:49:43.714Z,23.10
2022-11-01T03:50:43.676Z,22.80
2022-11-01T03:51:43.657Z,23.40
2022-11-01T03:52:43.674Z,22.50
2022-11-01T03:53:43.640Z,22.20
2022-11-01T03:54:43.655Z,21.40
2022-11-01T03:55:43.660Z,22.10
2022-11-01T03:56:43.616Z,22.80
2022-11-01T03:57:43.589Z,21.90
2022-11-01T03:58:43.595Z,22.40
2022-11-01T03:59:43.617Z,22.40
2022-11-01T04:00:43.613Z,21.50
2022-11-01T04:01:43.696Z,23.20
2022-11-01T04:02:43.536Z,22.60
2022-11-01T04:03:43.526Z,21.40
2022-11-01T04:04:43.544Z,21.30
2022-11-01T04:05:43.512Z,21.20
2022-11-01T04:06:43.523Z,20.70
2022-11-01T04:07:43.486Z,23.30
2022-11-01T04:08:43.476Z,20.80
2022-11-01T04:09:43.498Z,22.50
2022-11-01T04:10:43.471Z,20.70
2022-11-01T04:11:43.456Z,22.50
2022-11-01T04:12:43.423Z,21.90
2022-11-01T04:13:43.436Z,21.60
2022-11-01T04:14:43.435Z,20.40
2022-11-01T04:15:43.413Z,21.20
2022-11-01T04:16:43.385Z,21.00
2022-11-01T04:17:43.373Z,21.90
2022-11-01T04:18:43.406Z,21.20
2022-11-01T04:19:43.365Z,22.30
2022-11-01T04:20:43.343Z,22.70
2022-11-01T04:21:43.332Z,21.10
2022-11-01T04:22:43.326Z,21.40
2022-11-01T04:23:43.338Z,21.30
2022-11-01T04:24:43.330Z,21.40
2022-11-01T04:25:43.284Z,21.40
2022-11-01T04:26:43.267Z,21.80
2022-11-01T04:27:43.265Z,21.10
2022-11-01T04:28:43.255Z,20.40
2022-11-01T04:29:43.262Z,21.20
2022-11-01T04:30:43.234Z,21.00
2022-11-01T04:31:43.218Z,20.30
2022-11-01T04:32:43.235Z,20.60
2022-11-01T04:33:43.198Z,20.60
2022-11-01T04:34:43.225Z,20.00
2022-11-01T04:35:43.173Z,21.30
2022-11-01T04:36:43.166Z,19.70
2022-11-01T04:37:43.147Z,20.30
2022-11-01T04:38:43.146Z,20.30
2022-11-01T04:39:43.149Z,20.40
2022-11-01T04:40:43.133Z,20.40
2022-11-01T04:41:43.137Z,18.60
2022-11-01T04:42:43.103Z,20.40
2022-11-01T04:43:43.085Z,19.60
2022-11-01T04:44:43.113Z,19.90
2022-11-01T04:45:43.060Z,19.80
2022-11-01T04:46:43.054Z,18.90
2022-11-01T04:47:43.036Z,18.90
2022-11-01T04:48:43.027Z,19.10
2022-11-01T04:49:43.054Z,20.20
2022-11-01T04:50:43.018Z,20.00
2022-11-01T04:51:43.004Z,19.40
2022-11-01T04:52:42.979Z,19.60
2022-11-01T04:53:42.980Z,19.20
2022-11-01T04:54:42.973Z,18.90
2022-11-01T04:55:42.959Z,19.70
2022-11-01T04:56:42.945Z,18.90
2022-11-01T04:57:42.920Z,19.40
2022-11-01T04:58:46.277Z,19.40
2022-11-01T04:59:42.917Z,19.60
2022-11-01T05:00:42.940Z,19.70
2022-11-01T05:01:42.965Z,20.20
2022-11-01T05:02:42.868Z,20.30
2022-11-01T05:03:42.854Z,20.50
2022-11-01T05:04:42.865Z,20.70
2022-11-01T05:05:42.877Z,20.10
2022-11-01T05:06:42.847Z,20.70
2022-11-01T05:07:42.814Z,20.50
2022-11-01T05:08:42.800Z,20.80
2022-11-01T05:09:42.822Z,19.80
2022-11-01T05:10:42.793Z,21.40
2022-11-01T05:11:42.768Z,19.60
2022-11-01T05:12:42.808Z,19.60
2022-11-01T05:13:42.738Z,20.40
2022-11-01T05:14:42.748Z,22.10
2022-11-01T05:15:53.499Z,19.80
2022-11-01T05:16:42.753Z,19.40
2022-11-01T05:17:42.703Z,20.30
2022-11-01T05:18:42.698Z,20.40
2022-11-01T05:19:42.700Z,19.40
2022-11-01T05:20:42.684Z,18.90
2022-11-01T05:21:42.657Z,20.20
2022-11-01T05:22:42.655Z,19.20
2022-11-01T05:23:42.639Z,19.00
2022-11-01T05:25:42.604Z,19.60
2022-11-01T05:26:42.610Z,17.80
2022-11-01T05:27:42.592Z,18.50
2022-11-01T05:28:42.585Z,18.10
2022-11-01T05:29:42.590Z,18.50
2022-11-01T05:30:42.568Z,18.50
2022-11-01T05:31:42.545Z,18.10
2022-11-01T05:32:42.545Z,19.10
2022-11-01T05:33:42.523Z,18.30
2022-11-01T05:34:42.546Z,18.80
2022-11-01T05:35:42.500Z,17.80
2022-11-01T05:36:42.491Z,17.50
2022-11-01T05:37:42.477Z,17.60
2022-11-01T05:38:42.505Z,16.70
2022-11-01T05:39:42.465Z,18.50
2022-11-01T05:40:42.460Z,17.40
2022-11-01T05:41:42.434Z,17.10
2022-11-01T05:42:42.427Z,16.80
2022-11-01T05:43:42.436Z,16.70
2022-11-01T05:44:42.412Z,15.30
2022-11-01T05:45:42.383Z,17.30
2022-11-01T05:46:42.371Z,15.60
2022-11-01T05:47:42.373Z,16.40
2022-11-01T05:48:42.351Z,16.20
2022-11-01T05:49:42.337Z,16.90
2022-11-01T05:50:42.382Z,16.80
2022-11-01T05:51:42.321Z,17.20
2022-11-01T05:52:42.310Z,15.70
2022-11-01T05:53:42.290Z,15.40
2022-11-01T05:54:42.291Z,16.80
2022-11-01T05:55:42.307Z,16.30
2022-11-01T05:56:42.260Z,16.70
2022-11-01T05:57:42.288Z,15.10
2022-11-01T05:58:42.247Z,16.70
2022-11-01T05:59:42.228Z,14.90
2022-11-01T06:00:42.221Z,15.30
2022-11-01T06:01:42.491Z,15.00
2022-11-01T06:02:42.243Z,16.00
2022-11-01T06:03:42.185Z,15.10
2022-11-01T06:04:42.188Z,15.20
2022-11-01T06:05:42.163Z,15.70
2022-11-01T06:06:42.167Z,15.40
2022-11-01T06:07:42.159Z,14.20
2022-11-01T06:08:42.162Z,15.10
2022-11-01T06:09:42.119Z,15.10
2022-11-01T06:10:42.097Z,14.40
2022-11-01T06:11:42.133Z,13.40
2022-11-01T06:12:42.101Z,15.00
2022-11-01T06:13:42.089Z,14.50
2022-11-01T06:14:42.065Z,14.10
2022-11-01T06:15:42.051Z,14.50
2022-11-01T06:16:42.055Z,13.80
2022-11-01T06:17:42.032Z,16.00
2022-11-01T06:18:42.025Z,14.60
2022-11-01T06:19:42.062Z,14.00
2022-11-01T06:20:41.990Z,14.00
2022-11-01T06:21:41.978Z,14.20
2022-11-01T06:22:41.975Z,13.70
2022-11-01T06:23:41.990Z,14.00
2022-11-01T06:24:41.962Z,13.80
2022-11-01T06:25:41.951Z,13.50
2022-11-01T06:26:41.932Z,13.40
2022-11-01T06:27:41.916Z,13.70
2022-11-01T06:28:41.915Z,15.40
2022-11-01T06:29:41.889Z,13.70
2022-11-01T06:30:41.889Z,13.30
2022-11-01T06:31:41.899Z,12.60
2022-11-01T06:32:41.859Z,13.50
2022-11-01T06:33:41.854Z,13.50
2022-11-01T06:34:44.842Z,12.80
2022-11-01T06:35:41.874Z,13.80
2022-11-01T06:36:41.825Z,12.90
2022-11-01T06:37:41.820Z,14.20
2022-11-01T06:38:41.794Z,12.20
2022-11-01T06:39:41.793Z,13.60
2022-11-01T06:40:41.774Z,13.40
2022-11-01T06:41:41.749Z,13.10
2022-11-01T06:42:46.307Z,12.90
2022-11-01T06:43:41.769Z,13.20
2022-11-01T06:44:41.725Z,13.20
2022-11-01T06:45:41.729Z,13.50
2022-11-01T06:46:41.733Z,13.60
2022-11-01T06:47:41.702Z,12.70
2022-11-01T06:48:41.684Z,12.80
2022-11-01T06:49:41.718Z,12.50
2022-11-01T06:50:41.680Z,12.70
2022-11-01T06:51:41.644Z,11.90
2022-11-01T06:52:41.638Z,13.00
2022-11-01T06:53:41.632Z,12.40
2022-11-01T06:54:41.620Z,11.70
2022-11-01T06:55:41.679Z,12.30
2022-11-01T06:56:41.600Z,12.00
2022-11-01T06:57:41.581Z,11.90
2022-11-01T06:58:41.641Z,12.70
2022-11-01T06:59:41.557Z,12.10
2022-11-01T07:00:41.683Z,12.10
2022-11-01T07:01:41.695Z,12.80
2022-11-01T07:02:41.580Z,12.20
2022-11-01T07:03:41.520Z,12.60
2022-11-01T07:04:41.511Z,12.80
2022-11-01T07:05:41.526Z,11.50
2022-11-01T07:06:41.487Z,11.20
2022-11-01T07:07:41.517Z,12.40
2022-11-01T07:08:41.478Z,11.60
2022-11-01T07:09:41.450Z,11.70
2022-11-01T07:10:41.444Z,11.80
2022-11-01T07:11:41.432Z,11.90
2022-11-01T07:12:41.421Z,12.70
2022-11-01T07:13:41.425Z,11.80
2022-11-01T07:14:41.397Z,12.10
2022-11-01T07:15:41.438Z,13.00
2022-11-01T07:16:41.398Z,11.70
2022-11-01T07:17:41.382Z,11.30
2022-11-01T07:18:41.352Z,11.80
2022-11-01T07:19:41.359Z,11.90
2022-11-01T07:20:41.624Z,11.90
2022-11-01T07:21:41.393Z,11.30
2022-11-01T07:22:41.348Z,11.90
2022-11-01T07:23:41.357Z,12.70
2022-11-01T07:24:41.289Z,12.20
2022-11-01T07:25:41.290Z,10.60
2022-11-01T07:26:42.437Z,11.90
2022-11-01T07:27:41.250Z,11.10
2022-11-01T07:28:41.247Z,11.70
2022-11-01T07:29:41.235Z,11.90
2022-11-01T07:30:41.222Z,11.00
2022-11-01T07:31:41.224Z,10.50
2022-11-01T07:32:41.215Z,12.90
2022-11-01T07:33:41.185Z,12.30
2022-11-01T07:34:41.183Z,11.90
2022-11-01T07:35:41.166Z,11.60
2022-11-01T07:36:41.158Z,11.70
2022-11-01T07:37:41.150Z,11.10
2022-11-01T07:38:41.137Z,11.00
2022-11-01T07:39:41.139Z,11.40
2022-11-01T07:40:41.164Z,10.50
2022-11-01T07:41:41.116Z,11.50
2022-11-01T07:42:41.098Z,11.40
2022-11-01T07:43:41.095Z,11.30
2022-11-01T07:44:41.098Z,11.10
2022-11-01T07:45:41.047Z,11.20
2022-11-01T07:46:41.061Z,11.30
2022-11-01T07:47:41.040Z,10.50
2022-11-01T07:48:41.075Z,11.10
2022-11-01T07:49:41.070Z,10.50
2022-11-01T07:50:41.011Z,10.90
2022-11-01T07:51:40.988Z,10.40
2022-11-01T07:52:40.993Z,10.30
2022-11-01T07:53:40.965Z,11.40
2022-11-01T07:54:40.963Z,11.20
2022-11-01T07:55:40.973Z,9.80
2022-11-01T07:56:40.954Z,10.00
2022-11-01T07:57:40.957Z,10.00
2022-11-01T07:58:40.920Z,10.00
2022-11-01T07:59:40.904Z,10.20
2022-11-01T08:00:49.476Z,9.50
2022-11-01T08:01:40.993Z,9.80
2022-11-01T08:02:40.867Z,9.70
2022-11-01T08:03:40.860Z,9.50
2022-11-01T08:04:40.872Z,10.20
2022-11-01T08:05:40.839Z,10.60
2022-11-01T08:06:40.857Z,9.30
2022-11-01T08:07:40.818Z,10.70
2022-11-01T08:08:40.848Z,10.60
2022-11-01T08:09:40.791Z,10.10
2022-11-01T08:10:40.801Z,9.70
2022-11-01T08:11:40.789Z,9.70
2022-11-01T08:12:40.804Z,8.80
2022-11-01T08:13:40.747Z,10.00
2022-11-01T08:14:40.774Z,9.90
2022-11-01T08:15:40.742Z,8.90
2022-11-01T08:16:40.759Z,9.50
2022-11-01T08:17:40.712Z,8.90
2022-11-01T08:18:40.729Z,9.20
2022-11-01T08:19:40.695Z,9.80
2022-11-01T08:20:40.675Z,9.30
2022-11-01T08:21:40.666Z,10.10
2022-11-01T08:22:40.777Z,8.90
2022-11-01T08:23:40.639Z,9.50
2022-11-01T08:24:40.662Z,9.50
2022-11-01T08:25:40.641Z,8.90
2022-11-01T08:26:40.614Z,9.10
2022-11-01T08:27:40.597Z,8.90
2022-11-01T08:28:40.600Z,8.10
2022-11-01T08:29:40.583Z,8.70
2022-11-01T08:30:40.590Z,8.90
2022-11-01T08:31:40.569Z,9.10
2022-11-01T08:32:40.557Z,9.60
2022-11-01T08:33:40.534Z,8.40
2022-11-01T08:34:40.537Z,8.70
2022-11-01T08:35:41.843Z,8.30
2022-11-01T08:36:40.528Z,9.00
2022-11-01T08:37:40.520Z,8.30
2022-11-01T08:38:40.502Z,7.80
2022-11-01T08:39:40.508Z,7.40
2022-11-01T08:40:40.474Z,8.50
2022-11-01T08:41:40.472Z,8.10
2022-11-01T08:42:40.450Z,8.20
2022-11-01T08:43:40.892Z,7.20
2022-11-01T08:44:40.415Z,8.80
2022-11-01T08:45:40.437Z,8.80
2022-11-01T08:46:40.406Z,7.30
2022-11-01T08:47:40.398Z,7.60
2022-11-01T08:48:40.409Z,7.20
2022-11-01T08:49:40.362Z,6.90
2022-11-01T08:50:40.343Z,7.20
2022-11-01T08:51:40.361Z,7.90
2022-11-01T08:52:40.328Z,6.50
2022-11-01T08:53:40.342Z,6.70
2022-11-01T08:54:40.302Z,7.10
2022-11-01T08:55:40.379Z,6.10
2022-11-01T08:56:40.284Z,6.80
2022-11-01T08:57:40.322Z,6.70
2022-11-01T08:58:40.267Z,6.50
2022-11-01T08:59:40.280Z,6.50
2022-11-01T09:00:40.244Z,6.90
2022-11-01T09:01:40.488Z,6.40
2022-11-01T09:02:40.245Z,6.50
2022-11-01T09:03:40.211Z,5.60
2022-11-01T09:04:40.186Z,5.90
2022-11-01T09:05:40.234Z,5.90
2022-11-01T09:06:40.163Z,6.10
2022-11-01T09:07:40.161Z,5.90
2022-11-01T09:08:40.149Z,5.90
2022-11-01T09:09:40.147Z,5.90
2022-11-01T09:10:40.156Z,6.10
2022-11-01T09:11:40.123Z,5.90
2022-11-01T09:13:40.075Z,5.80
2022-11-01T09:14:40.089Z,5.60
2022-11-01T09:15:40.068Z,5.30
2022-11-01T09:16:40.077Z,5.80
2022-11-01T09:17:40.061Z,5.40
2022-11-01T09:18:40.072Z,5.30
2022-11-01T09:19:40.015Z,6.20
2022-11-01T09:20:40.045Z,5.60
2022-11-01T09:21:40.028Z,5.70
2022-11-01T09:22:39.990Z,5.40
2022-11-01T09:23:40.003Z,5.40
2022-11-01T09:24:40.029Z,5.70
2022-11-01T09:25:39.950Z,5.20
2022-11-01T09:26:39.963Z,5.10
2022-11-01T09:27:39.949Z,5.60
2022-11-01T09:28:39.936Z,5.50
2022-11-01T09:29:39.948Z,5.50
2022-11-01T09:30:49.531Z,4.50
2022-11-01T09:31:39.890Z,4.80
2022-11-01T09:32:39.912Z,5.60
2022-11-01T09:33:39.870Z,5.10
2022-11-01T09:34:39.886Z,5.30
2022-11-01T09:35:39.859Z,4.60
2022-11-01T09:36:39.870Z,5.60
2022-11-01T09:37:39.832Z,5.30
2022-11-01T09:38:39.855Z,5.20
2022-11-01T09:39:39.793Z,4.50
2022-11-01T09:40:39.793Z,4.60
2022-11-01T09:41:39.809Z,5.90
2022-11-01T09:42:39.821Z,5.10
2022-11-01T09:43:39.755Z,5.00
2022-11-01T09:44:39.752Z,4.90
2022-11-01T09:45:39.757Z,5.30
2022-11-01T09:46:39.722Z,5.10
2022-11-01T09:47:39.749Z,5.20
2022-11-01T09:48:39.700Z,5.30
2022-11-01T09:49:39.690Z,5.20
2022-11-01T09:50:39.678Z,5.50
2022-11-01T09:51:39.669Z,5.80
2022-11-01T09:52:39.655Z,5.30
2022-11-01T09:53:39.657Z,5.10
2022-11-01T09:54:39.630Z,5.30
2022-11-01T09:55:39.635Z,5.50
2022-11-01T09:56:39.624Z,5.50
2022-11-01T09:57:39.621Z,5.00
2022-11-01T09:58:39.605Z,5.20
2022-11-01T09:59:39.604Z,5.10
2022-11-01T10:00:39.629Z,4.90
2022-11-01T10:01:39.709Z,5.40
2022-11-01T10:02:39.567Z,4.80
2022-11-01T10:03:39.542Z,5.20
2022-11-01T10:04:39.537Z,4.90
2022-11-01T10:05:39.560Z,4.90
2022-11-01T10:06:39.512Z,5.40
2022-11-01T10:07:39.487Z,5.30
2022-11-01T10:08:39.475Z,5.10
2022-11-01T10:09:39.494Z,4.80
2022-11-01T10:10:39.464Z,5.50
2022-11-01T10:11:39.469Z,5.20
2022-11-01T10:12:39.434Z,5.00
2022-11-01T10:13:39.422Z,4.70
2022-11-01T10:14:39.417Z,5.70
2022-11-01T10:15:39.438Z,5.20
2022-11-01T10:16:39.389Z,5.40
2022-11-01T10:17:39.437Z,5.10
2022-11-01T10:18:39.376Z,5.00
2022-11-01T10:19:39.385Z,4.90
2022-11-01T10:20:39.382Z,5.00
2022-11-01T10:21:39.352Z,4.90
2022-11-01T10:22:39.342Z,5.00
2022-11-01T10:23:39.331Z,4.60
2022-11-01T10:24:39.302Z,4.50
2022-11-01T10:25:39.289Z,4.40
2022-11-01T10:26:39.281Z,4.30
2022-11-01T10:27:39.286Z,4.30
2022-11-01T10:28:39.293Z,4.30
2022-11-01T10:29:39.248Z,3.90
2022-11-01T10:30:39.253Z,4.00
2022-11-01T10:31:39.221Z,3.90
2022-11-01T10:32:39.213Z,3.30
2022-11-01T10:33:39.220Z,3.70
2022-11-01T10:34:39.186Z,3.70
2022-11-01T10:35:39.188Z,3.30
2022-11-01T10:36:39.269Z,3.20
2022-11-01T10:37:43.768Z,2.90
2022-11-01T10:39:23.072Z,3.50
2022-11-01T10:39:55.797Z,3.80
2022-11-01T10:40:39.157Z,3.30
2022-11-01T10:41:39.168Z,3.60
2022-11-01T10:42:39.105Z,3.50
2022-11-01T10:43:39.133Z,3.60
2022-11-01T10:44:39.110Z,3.20
2022-11-01T10:45:42.349Z,3.00
2022-11-01T10:46:39.062Z,3.30
2022-11-01T10:47:39.061Z,3.70
2022-11-01T10:48:39.031Z,3.10
2022-11-01T10:50:39.027Z,3.20
2022-11-01T10:51:39.010Z,3.30
2022-11-01T10:52:38.986Z,3.20
2022-11-01T10:53:38.982Z,2.90
2022-11-01T10:54:38.993Z,2.70
2022-11-01T10:55:38.984Z,3.30
2022-11-01T10:56:38.961Z,3.10
2022-11-01T10:57:38.931Z,2.90
2022-11-01T10:58:38.943Z,2.10
2022-11-01T10:59:38.930Z,2.10
2022-11-01T11:00:38.931Z,1.80
2022-11-01T11:01:39.034Z,1.60
2022-11-01T11:02:38.949Z,1.70
2022-11-01T11:03:38.857Z,1.60
2022-11-01T11:04:38.885Z,1.40
2022-11-01T11:05:38.840Z,2.00
2022-11-01T11:06:38.831Z,1.20
2022-11-01T11:07:38.831Z,1.40
2022-11-01T11:08:38.815Z,2.00
2022-11-01T11:09:38.809Z,1.30
2022-11-01T11:10:38.787Z,1.20
2022-11-01T11:11:38.775Z,1.50
2022-11-01T11:12:38.775Z,1.20
2022-11-01T11:13:38.744Z,1.10
2022-11-01T11:14:38.773Z,1.50
2022-11-01T11:15:38.743Z,1.10
2022-11-01T11:16:38.730Z,1.40
2022-11-01T11:17:38.776Z,1.20
2022-11-01T11:18:38.737Z,1.20
2022-11-01T11:19:38.727Z,1.20
2022-11-01T11:20:38.677Z,1.10
2022-11-01T11:21:38.669Z,1.30
2022-11-01T11:22:38.688Z,1.70
2022-11-01T11:23:38.648Z,1.10
2022-11-01T11:24:38.680Z,1.50
2022-11-01T11:25:38.645Z,1.20
2022-11-01T11:26:39.058Z,1.00
2022-11-01T11:27:38.590Z,1.40
2022-11-01T11:28:38.578Z,1.40
2022-11-01T11:29:38.583Z,0.80
2022-11-01T11:30:38.565Z,1.70
2022-11-01T11:31:38.541Z,1.70
2022-11-01T11:32:38.535Z,1.30
2022-11-01T11:33:38.534Z,1.40
2022-11-01T11:34:38.511Z,1.10
2022-11-01T11:35:38.537Z,1.20
2022-11-01T11:36:38.524Z,1.50
2022-11-01T11:37:38.478Z,1.00
2022-11-01T11:38:38.462Z,1.40
2022-11-01T11:39:38.451Z,1.60
2022-11-01T11:40:38.465Z,1.60
2022-11-01T11:41:38.435Z,1.00
2022-11-01T11:42:38.424Z,1.20
2022-11-01T11:43:38.405Z,1.20
2022-11-01T11:44:38.409Z,1.10
2022-11-01T11:45:38.388Z,1.50
2022-11-01T11:46:38.382Z,1.20
2022-11-01T11:47:38.356Z,1.20
2022-11-01T11:48:38.347Z,1.20
2022-11-01T11:49:38.338Z,1.10
2022-11-01T11:50:38.361Z,1.30
2022-11-01T11:51:38.335Z,1.70
2022-11-01T11:52:38.934Z,1.30
2022-11-01T11:53:38.287Z,1.40
2022-11-01T11:54:38.306Z,1.40
2022-11-01T11:55:38.269Z,1.60
2022-11-01T11:56:38.265Z,1.30
2022-11-01T11:57:38.246Z,1.50
2022-11-01T11:58:38.233Z,1.20
2022-11-01T11:59:38.264Z,1.20
2022-11-01T12:00:38.218Z,1.80
2022-11-01T12:01:38.242Z,1.70
2022-11-01T12:02:38.216Z,1.50
2022-11-01T12:03:38.181Z,2.30
2022-11-01T12:04:38.163Z,1.20
2022-11-01T12:05:38.154Z,1.60
2022-11-01T12:06:38.168Z,1.30
2022-11-01T12:07:38.122Z,1.40
2022-11-01T12:08:38.122Z,1.30
2022-11-01T12:09:38.112Z,1.10
2022-11-01T12:10:38.119Z,1.50
2022-11-01T12:11:38.119Z,1.30
2022-11-01T12:12:38.092Z,1.40
2022-11-01T12:13:38.077Z,1.50
2022-11-01T12:14:38.063Z,1.60
2022-11-01T12:15:41.227Z,1.50
2022-11-01T12:16:38.072Z,1.20
2022-11-01T12:17:38.035Z,1.30
2022-11-01T12:18:38.011Z,1.90
2022-11-01T12:19:38.013Z,1.50
2022-11-01T12:20:37.986Z,1.60
2022-11-01T12:21:37.969Z,1.70
2022-11-01T12:22:37.998Z,1.50
2022-11-01T12:23:37.952Z,1.60
2022-11-01T12:24:37.935Z,1.60
2022-11-01T12:25:37.940Z,2.20
2022-11-01T12:26:37.934Z,1.60
2022-11-01T12:27:37.914Z,1.60
2022-11-01T12:28:37.919Z,1.90
2022-11-01T12:29:37.888Z,1.40
2022-11-01T12:30:37.869Z,1.40
2022-11-01T12:31:37.852Z,2.60
2022-11-01T12:32:37.860Z,1.70
2022-11-01T12:33:37.836Z,1.60
2022-11-01T12:34:39.851Z,1.90
2022-11-01T12:35:37.807Z,1.50
2022-11-01T12:36:37.808Z,1.60
2022-11-01T12:37:37.845Z,1.40
2022-11-01T12:38:37.795Z,1.30
2022-11-01T12:39:37.801Z,1.10
2022-11-01T12:40:37.785Z,1.40
2022-11-01T12:41:37.756Z,1.50
2022-11-01T12:42:37.747Z,1.80
2022-11-01T12:43:37.737Z,1.80
2022-11-01T12:44:37.750Z,1.50
2022-11-01T12:45:37.704Z,1.50
2022-11-01T12:46:37.699Z,1.30
2022-11-01T12:47:37.751Z,1.50
2022-11-01T12:48:37.705Z,1.60
2022-11-01T12:49:37.652Z,1.70
2022-11-01T12:50:37.674Z,1.60
2022-11-01T12:51:37.638Z,1.20
2022-11-01T12:52:37.619Z,1.40
2022-11-01T12:53:37.633Z,1.60
2022-11-01T12:54:37.604Z,1.60
2022-11-01T12:55:37.580Z,1.60
2022-11-01T12:56:37.587Z,1.70
2022-11-01T12:57:37.574Z,1.40
2022-11-01T12:58:37.569Z,2.00
2022-11-01T12:59:37.548Z,1.30
2022-11-01T13:00:37.535Z,1.30
2022-11-01T13:01:37.658Z,1.80
2022-11-01T13:02:37.538Z,1.70
2022-11-01T13:03:37.493Z,1.60
2022-11-01T13:04:37.495Z,1.40
2022-11-01T13:05:37.475Z,1.80
2022-11-01T13:06:37.529Z,2.10
2022-11-01T13:07:37.436Z,1.60